Bergen, NY

6:48 AM EDT on April 28, 2015 (GMT -0400)
Southwoods RV Resort | | Change Station
CLOSE
Current Station
Personal Weather Station
Location: Byron, NY
Elevation: 705 ft
Nearby Weather Stations

Elev 705 ft 43.08 °N, 78.03 °W | Updated 29 seconds ago

Mostly Cloudy
Mostly Cloudy
40.8 °F
Feels Like 41 °F
N
2.0
Wind Variable Wind from SW
Gusts 4.9 mph

Today
High -- | Low -- °F
--% Chance of Precip.
Yesterday
High -- | Low -- °F
Precip. -- in
6:10 AM 8:09 PM
Waxing Gibbous, 72% visible
Pressure 29.98 in
Visibility 10.0 miles
Clouds Mostly Cloudy 7000 ft
Windchill 41 °F
Dew Point 38 °F
Humidity 90%
Rainfall 0.00 in
Snow Depth Not available.
UV 0.0 out of 12
Pollen 8.80 out of 12
Air Quality Not available.
Flu Activity Widespread
METAR KROC 280954Z 25005KT 10SM BKN070 06/03 A2996 RMK AO2 SLP151 T00560033

More Conditions Fewer Conditions

Pressure 29.98 in
Visibility 10.0 miles
Clouds Mostly Cloudy 7000 ft
Windchill 41 °F
Dew Point 38 °F
Humidity 90%
Rainfall 0.00 in
Snow Depth Not available.
UV 0.0 out of 12
Pollen 8.80 out of 12
Air Quality Not available.
Flu Activity Widespread
METAR KROC 280954Z 25005KT 10SM BKN070 06/03 A2996 RMK AO2 SLP151 T00560033

More Conditions Fewer Conditions

10-Day Weather Forecast

Almanac

Astronomy

Apr. 28, 2015 Rise Set
Actual Time
Civil Twilight
Nautical Twilight
Astronomical Twilight
Moon
Length of Visible Light
Length of Day
Tomorrow will be .
, % of the Moon is Illuminated

Today's Extremes

State Highs State Lows

Community

WunderPhotos

Upload Photos

1,817,603 photos uploaded!

WunderBlogs® & News

Nearby

Air Quality

  Air Quality AQ Index Pollutant
Not available.

Snow Depth

Station Depth Elevation

Earthquake Activity

City Distance Mag. Time & Date
Minimum magnitude displayed is 2.5.

Coastal Water Temperatures

Place Temperature

Stations

Nearby Weather Stations

Station Location Temp. Windchill Dew Point Humidity Wind Precip. Elev Updated Type